createdAt,value
2019-04-21T00:00:06.216Z,11.57
2019-04-21T00:05:24.550Z,9.60
2019-04-21T00:10:26.939Z,8.98
2019-04-21T00:15:15.814Z,8.40
2019-04-21T00:20:15.013Z,0
2019-04-21T00:25:19.133Z,7.58
2019-04-21T00:30:24.113Z,9.40
2019-04-21T00:35:07.595Z,7.35
2019-04-21T00:40:22.525Z,11.73
2019-04-21T00:45:16.497Z,10.63
2019-04-21T00:50:24.726Z,7.70
2019-04-21T00:55:38.643Z,7.78
2019-04-21T01:00:22.285Z,9.33
2019-04-21T01:05:33.570Z,8.18
2019-04-21T01:10:17.434Z,10.45
2019-04-21T01:15:25.002Z,12.60
2019-04-21T01:20:16.201Z,10.80
2019-04-21T01:25:12.159Z,11.63
2019-04-21T01:30:24.894Z,10.25
2019-04-21T01:35:21.397Z,9.48
2019-04-21T01:40:32.067Z,12.93
2019-04-21T01:45:21.872Z,18.05
2019-04-21T01:50:21.011Z,8.35
2019-04-21T01:55:18.360Z,14.20
2019-04-21T02:00:14.805Z,8.55
2019-04-21T02:05:26.685Z,10.88
2019-04-21T02:10:26.929Z,10.53
2019-04-21T02:15:16.960Z,12.33
2019-04-21T02:20:15.197Z,10.58
2019-04-21T02:25:25.818Z,9.13
2019-04-21T02:30:36.063Z,10.18
2019-04-21T02:35:30.476Z,9.55
2019-04-21T02:40:40.453Z,9.78
2019-04-21T02:45:34.210Z,9.45
2019-04-21T02:55:28.917Z,13.35
2019-04-21T03:05:42.900Z,12.70
2019-04-21T03:10:26.536Z,11.38
2019-04-21T03:15:41.206Z,12.65
2019-04-21T03:20:39.960Z,10.85
2019-04-21T03:25:47.384Z,8.58
2019-04-21T03:45:39.015Z,12.28
2019-04-21T03:50:27.751Z,12.18
2019-04-21T04:05:51.249Z,12.13
2019-04-21T04:10:34.517Z,8.53
2019-04-21T04:15:39.047Z,15.48
2019-04-21T04:21:40.939Z,10.75
2019-04-21T04:25:27.778Z,11.63
2019-04-21T04:30:37.860Z,9.40
2019-04-21T04:35:46.157Z,13.78
2019-04-21T04:40:34.675Z,10.48
2019-04-21T04:50:43.629Z,12.07
2019-04-21T04:55:33.583Z,11.48
2019-04-21T05:00:35.097Z,14.87
2019-04-21T05:05:38.112Z,18.30
2019-04-21T05:10:41.693Z,15.30
2019-04-21T05:15:23.730Z,11.05
2019-04-21T05:20:29.786Z,11.93
2019-04-21T05:25:18.586Z,13.95
2019-04-21T05:30:30.690Z,13.15
2019-04-21T05:35:26.858Z,14.33
2019-04-21T05:40:17.417Z,16.05
2019-04-21T05:45:29.995Z,14.73
2019-04-21T05:50:23.754Z,15.30
2019-04-21T05:55:34.623Z,15.30
2019-04-21T06:00:39.096Z,15.38
2019-04-21T06:05:30.168Z,11.80
2019-04-21T06:10:27.381Z,15.55
2019-04-21T06:15:34.898Z,14.05
2019-04-21T06:20:27.659Z,14.95
2019-04-21T06:26:21.596Z,17.27
2019-04-21T06:30:27.607Z,16.73
2019-04-21T06:35:28.158Z,13.30
2019-04-21T06:40:30.429Z,13.65
2019-04-21T06:45:27.327Z,16.05
2019-04-21T06:50:36.911Z,14.03
2019-04-21T06:55:26.810Z,17.70
2019-04-21T07:00:21.897Z,12.03
2019-04-21T07:05:26.545Z,11.75
2019-04-21T07:10:26.563Z,21.07
2019-04-21T07:15:23.645Z,12.73
2019-04-21T07:20:21.467Z,14.43
2019-04-21T07:25:29.745Z,14.55
2019-04-21T07:35:23.612Z,14.28
2019-04-21T07:40:22.267Z,11.15
2019-04-21T07:45:17.986Z,13.75
2019-04-21T07:50:26.331Z,16.37
2019-04-21T08:00:29.750Z,0
2019-04-21T08:05:20.516Z,0
2019-04-21T08:10:22.554Z,17.82
2019-04-21T08:20:18.822Z,14.28
2019-04-21T08:30:26.253Z,15.43
2019-04-21T08:35:49.481Z,11.45
2019-04-21T08:40:26.241Z,10.55
2019-04-21T08:45:33.607Z,18.82
2019-04-21T08:50:20.853Z,15.58
2019-04-21T08:55:30.611Z,15.90
2019-04-21T09:00:29.583Z,17.07
2019-04-21T09:05:20.571Z,12.45
2019-04-21T09:10:26.945Z,11.70
2019-04-21T09:15:21.692Z,14.75
2019-04-21T09:20:26.572Z,13.20
2019-04-21T09:25:26.750Z,15.80
2019-04-21T09:30:05.022Z,16.97
2019-04-21T09:35:07.300Z,24.95
2019-04-21T09:40:04.561Z,18.45
2019-04-21T09:45:06.125Z,16.93
2019-04-21T09:50:04.773Z,13.80
2019-04-21T09:55:09.987Z,11.38
2019-04-21T10:00:11.314Z,23.47
2019-04-21T10:05:02.529Z,18.70
2019-04-21T10:10:03.836Z,14.13
2019-04-21T10:15:04.294Z,14.15
2019-04-21T10:20:03.204Z,9.53
2019-04-21T10:25:03.014Z,18.52
2019-04-21T10:30:03.653Z,11.68
2019-04-21T10:35:03.260Z,12.60
2019-04-21T10:40:03.558Z,17.30
2019-04-21T10:45:03.326Z,9.50
2019-04-21T10:50:02.883Z,14.20
2019-04-21T10:55:17.188Z,12.20
2019-04-21T11:00:04.120Z,9.78
2019-04-21T11:05:03.024Z,10.53
2019-04-21T11:10:02.576Z,10.75
2019-04-21T11:15:03.287Z,8.95
2019-04-21T11:20:02.791Z,8.05
2019-04-21T11:25:03.397Z,13.55
2019-04-21T11:30:02.883Z,10.18
2019-04-21T11:35:03.394Z,15.70
2019-04-21T11:40:06.830Z,10.88
2019-04-21T11:45:04.103Z,10.25
2019-04-21T11:50:03.362Z,10.20
2019-04-21T11:55:02.876Z,10.65
2019-04-21T12:00:03.939Z,13.78
2019-04-21T12:05:03.497Z,12.58
2019-04-21T12:10:03.772Z,13.45
2019-04-21T12:15:03.982Z,9.18
2019-04-21T12:20:03.271Z,12.10
2019-04-21T12:25:03.065Z,11.40
2019-04-21T12:30:03.827Z,11.83
2019-04-21T12:35:03.870Z,11.97
2019-04-21T12:40:03.279Z,0
2019-04-21T12:45:03.596Z,8.83
2019-04-21T12:50:03.026Z,10.00
2019-04-21T12:55:03.758Z,10.88
2019-04-21T13:00:04.733Z,9.30
2019-04-21T13:10:04.268Z,8.83
2019-04-21T13:15:04.058Z,0
2019-04-21T13:20:03.438Z,10.30
2019-04-21T13:25:02.463Z,0
2019-04-21T13:30:04.147Z,7.37
2019-04-21T13:35:03.189Z,0
2019-04-21T13:40:24.858Z,9.53
2019-04-21T13:45:04.211Z,6.90
2019-04-21T13:50:05.282Z,7.47
2019-04-21T13:55:03.391Z,8.88
2019-04-21T14:00:03.631Z,8.68
2019-04-21T14:05:03.457Z,10.10
2019-04-21T14:10:06.201Z,9.18
2019-04-21T14:15:04.054Z,7.60
2019-04-21T14:20:03.499Z,6.83
2019-04-21T14:25:03.753Z,7.42
2019-04-21T14:30:04.831Z,7.55
2019-04-21T14:35:04.785Z,8.20
2019-04-21T14:40:07.404Z,0
2019-04-21T14:45:03.333Z,9.25
2019-04-21T14:50:03.079Z,0
2019-04-21T14:55:02.889Z,8.90
2019-04-21T15:00:03.020Z,0
2019-04-21T15:05:03.917Z,6.10
2019-04-21T15:10:07.849Z,0
2019-04-21T15:15:02.943Z,9.60
2019-04-21T15:20:06.676Z,0
2019-04-21T15:25:03.319Z,7.95
2019-04-21T15:30:02.967Z,0
2019-04-21T15:35:04.030Z,5.62
2019-04-21T15:40:12.253Z,0
2019-04-21T15:45:02.946Z,5.17
2019-04-21T15:50:07.379Z,0
2019-04-21T15:55:03.419Z,5.03
2019-04-21T16:00:02.988Z,5.65
2019-04-21T16:05:02.401Z,8.53
2019-04-21T16:10:06.214Z,7.72
2019-04-21T16:15:02.932Z,5.80
2019-04-21T16:20:03.999Z,4.78
2019-04-21T16:25:03.339Z,8.73
2019-04-21T16:30:03.910Z,7.33
2019-04-21T16:35:08.269Z,5.87
2019-04-21T16:40:03.396Z,5.97
2019-04-21T16:45:03.284Z,6.85
2019-04-21T16:50:03.553Z,6.30
2019-04-21T16:55:05.103Z,6.20
2019-04-21T17:00:02.828Z,5.90
2019-04-21T17:05:04.672Z,5.22
2019-04-21T17:10:04.441Z,4.92
2019-04-21T17:15:21.506Z,5.60
2019-04-21T17:20:15.801Z,5.83
2019-04-21T17:25:04.317Z,5.60
2019-04-21T17:30:04.233Z,5.72
2019-04-21T17:35:03.994Z,3.37
2019-04-21T17:40:05.278Z,4.50
2019-04-21T17:45:03.758Z,4.10
2019-04-21T17:50:04.745Z,5.12
2019-04-21T17:55:10.303Z,4.97
2019-04-21T18:00:25.866Z,6.47
2019-04-21T18:05:21.334Z,4.95
2019-04-21T18:10:19.070Z,6.53
2019-04-21T18:15:26.467Z,3.70
2019-04-21T18:20:03.829Z,3.80
2019-04-21T18:25:06.662Z,3.35
2019-04-21T18:30:02.823Z,2.95
2019-04-21T18:35:07.035Z,3.80
2019-04-21T18:40:12.336Z,4.78
2019-04-21T18:45:40.296Z,3.85
2019-04-21T18:50:04.045Z,5.22
2019-04-21T18:55:16.310Z,4.22
2019-04-21T19:00:12.804Z,3.77
2019-04-21T19:05:09.022Z,3.90
2019-04-21T19:10:28.228Z,5.42
2019-04-21T19:15:25.426Z,3.42
2019-04-21T19:20:26.108Z,4.87
2019-04-21T19:25:20.824Z,4.15
2019-04-21T19:30:33.970Z,4.30
2019-04-21T19:35:05.538Z,5.60
2019-04-21T19:40:16.153Z,5.25
2019-04-21T19:45:16.513Z,5.12
2019-04-21T19:50:21.388Z,6.17
2019-04-21T19:55:02.646Z,5.65
2019-04-21T20:00:05.511Z,5.37
2019-04-21T20:05:07.935Z,6.17
2019-04-21T20:10:23.961Z,6.97
2019-04-21T20:15:20.011Z,6.00
2019-04-21T20:20:04.026Z,5.97
2019-04-21T20:25:07.904Z,6.55
2019-04-21T20:30:21.058Z,8.28
2019-04-21T20:35:26.310Z,10.82
2019-04-21T20:40:15.935Z,10.20
2019-04-21T20:50:18.474Z,11.03
2019-04-21T20:55:17.914Z,9.60
2019-04-21T21:00:19.292Z,10.28
2019-04-21T21:05:19.022Z,13.95
2019-04-21T21:10:20.878Z,12.30
2019-04-21T21:15:10.134Z,12.80
2019-04-21T21:20:19.652Z,17.65
2019-04-21T21:25:29.032Z,14.55
2019-04-21T21:30:21.655Z,15.15
2019-04-21T21:35:19.228Z,15.72
2019-04-21T21:40:21.858Z,12.30
2019-04-21T21:45:11.590Z,13.53
2019-04-21T21:50:10.837Z,14.85
2019-04-21T21:55:03.661Z,16.70
2019-04-21T22:00:10.774Z,15.95
2019-04-21T22:05:09.208Z,16.42
2019-04-21T22:10:04.381Z,16.55
2019-04-21T22:15:12.534Z,16.87
2019-04-21T22:20:22.805Z,20.95
2019-04-21T22:25:10.140Z,30.27
2019-04-21T22:30:05.917Z,48.45
2019-04-21T22:35:08.857Z,46.10
2019-04-21T22:40:14.322Z,42.53
2019-04-21T22:45:02.867Z,37.48
2019-04-21T22:50:04.420Z,32.25
2019-04-21T22:55:08.528Z,29.98
2019-04-21T23:00:07.409Z,27.45
2019-04-21T23:05:03.947Z,22.73
2019-04-21T23:10:03.489Z,20.75
2019-04-21T23:15:09.270Z,22.95
2019-04-21T23:20:22.654Z,23.55
2019-04-21T23:25:18.278Z,24.63
2019-04-21T23:30:25.898Z,23.27
2019-04-21T23:35:14.219Z,22.17
2019-04-21T23:40:07.577Z,23.07
2019-04-21T23:45:03.774Z,21.70
2019-04-21T23:50:15.967Z,22.90
2019-04-21T23:55:03.280Z,20.92
